sensor_id;sensor_type;location;lat;lon;timestamp;pressure;altitude;pressure_sealevel;temperature;humidity
59531;BME280;45349;48.692;8.186;2022-07-23T00:01:38;98666.91;;;22.73;65.68
59531;BME280;45349;48.692;8.186;2022-07-23T00:04:07;98667.50;;;22.63;65.11
59531;BME280;45349;48.692;8.186;2022-07-23T00:06:34;98668.16;;;22.59;66.11
59531;BME280;45349;48.692;8.186;2022-07-23T00:09:03;98662.38;;;22.50;66.39
59531;BME280;45349;48.692;8.186;2022-07-23T00:11:30;98657.94;;;22.44;66.07
59531;BME280;45349;48.692;8.186;2022-07-23T00:13:57;98664.22;;;22.49;65.48
59531;BME280;45349;48.692;8.186;2022-07-23T00:16:24;98670.41;;;22.43;66.03
59531;BME280;45349;48.692;8.186;2022-07-23T00:18:50;98670.66;;;22.41;65.98
59531;BME280;45349;48.692;8.186;2022-07-23T00:21:17;98665.34;;;22.41;65.77
59531;BME280;45349;48.692;8.186;2022-07-23T00:23:44;98677.16;;;22.46;65.50
59531;BME280;45349;48.692;8.186;2022-07-23T00:26:12;98690.06;;;22.42;65.81
59531;BME280;45349;48.692;8.186;2022-07-23T00:28:39;98679.00;;;22.45;65.62
59531;BME280;45349;48.692;8.186;2022-07-23T00:31:06;98673.06;;;22.43;66.06
59531;BME280;45349;48.692;8.186;2022-07-23T00:33:34;98664.97;;;22.38;66.37
59531;BME280;45349;48.692;8.186;2022-07-23T00:36:02;98657.69;;;22.33;66.64
59531;BME280;45349;48.692;8.186;2022-07-23T00:38:29;98656.41;;;22.36;66.53
59531;BME280;45349;48.692;8.186;2022-07-23T00:40:56;98653.88;;;22.41;65.93
59531;BME280;45349;48.692;8.186;2022-07-23T00:43:25;98656.53;;;22.41;65.32
59531;BME280;45349;48.692;8.186;2022-07-23T00:45:52;98655.50;;;22.42;65.25
59531;BME280;45349;48.692;8.186;2022-07-23T00:48:19;98652.69;;;22.37;66.58
59531;BME280;45349;48.692;8.186;2022-07-23T00:50:47;98647.72;;;22.29;66.42
59531;BME280;45349;48.692;8.186;2022-07-23T00:53:14;98641.72;;;22.21;66.64
59531;BME280;45349;48.692;8.186;2022-07-23T00:55:41;98637.75;;;22.12;67.40
59531;BME280;45349;48.692;8.186;2022-07-23T00:58:09;98627.19;;;22.05;67.44
59531;BME280;45349;48.692;8.186;2022-07-23T01:00:37;98628.31;;;21.97;67.96
59531;BME280;45349;48.692;8.186;2022-07-23T01:03:04;98626.78;;;21.90;68.76
59531;BME280;45349;48.692;8.186;2022-07-23T01:05:31;98632.78;;;21.85;69.43
59531;BME280;45349;48.692;8.186;2022-07-23T01:07:58;98612.03;;;21.75;69.79
59531;BME280;45349;48.692;8.186;2022-07-23T01:10:44;98605.91;;;21.63;70.67
59531;BME280;45349;48.692;8.186;2022-07-23T01:13:11;98610.88;;;21.52;71.00
59531;BME280;45349;48.692;8.186;2022-07-23T01:15:40;98616.72;;;21.43;70.90
59531;BME280;45349;48.692;8.186;2022-07-23T01:18:08;98629.47;;;21.34;71.11
59531;BME280;45349;48.692;8.186;2022-07-23T01:20:37;98632.88;;;21.22;71.97
59531;BME280;45349;48.692;8.186;2022-07-23T01:23:06;98637.00;;;21.18;72.16
59531;BME280;45349;48.692;8.186;2022-07-23T01:25:34;98639.13;;;21.09;72.85
59531;BME280;45349;48.692;8.186;2022-07-23T01:28:03;98634.91;;;21.02;72.64
59531;BME280;45349;48.692;8.186;2022-07-23T01:30:32;98630.69;;;20.94;72.12
59531;BME280;45349;48.692;8.186;2022-07-23T01:33:00;98639.53;;;20.88;72.16
59531;BME280;45349;48.692;8.186;2022-07-23T01:35:28;98632.44;;;20.75;72.57
59531;BME280;45349;48.692;8.186;2022-07-23T01:37:59;98635.41;;;20.67;72.92
59531;BME280;45349;48.692;8.186;2022-07-23T01:40:28;98644.41;;;20.59;73.43
59531;BME280;45349;48.692;8.186;2022-07-23T01:42:57;98641.59;;;20.54;73.50
59531;BME280;45349;48.692;8.186;2022-07-23T01:45:24;98646.13;;;20.46;74.34
59531;BME280;45349;48.692;8.186;2022-07-23T01:47:52;98643.66;;;20.52;75.33
59531;BME280;45349;48.692;8.186;2022-07-23T01:50:19;98654.53;;;20.43;75.28
59531;BME280;45349;48.692;8.186;2022-07-23T01:52:58;98655.59;;;20.35;75.16
59531;BME280;45349;48.692;8.186;2022-07-23T01:55:28;98651.75;;;20.31;75.55
59531;BME280;45349;48.692;8.186;2022-07-23T01:57:55;98653.22;;;20.20;74.79
59531;BME280;45349;48.692;8.186;2022-07-23T02:00:27;98645.31;;;20.14;74.66
59531;BME280;45349;48.692;8.186;2022-07-23T02:02:54;98644.34;;;20.08;74.31
59531;BME280;45349;48.692;8.186;2022-07-23T02:05:21;98652.94;;;20.03;75.65
59531;BME280;45349;48.692;8.186;2022-07-23T02:07:49;98665.78;;;20.00;75.78
59531;BME280;45349;48.692;8.186;2022-07-23T02:10:16;98664.59;;;19.96;75.74
59531;BME280;45349;48.692;8.186;2022-07-23T02:12:45;98668.03;;;19.96;75.98
59531;BME280;45349;48.692;8.186;2022-07-23T02:15:13;98671.94;;;19.94;76.03
59531;BME280;45349;48.692;8.186;2022-07-23T02:17:41;98672.31;;;19.97;75.80
59531;BME280;45349;48.692;8.186;2022-07-23T02:20:10;98676.41;;;20.00;75.68
59531;BME280;45349;48.692;8.186;2022-07-23T02:22:38;98672.91;;;20.06;75.27
59531;BME280;45349;48.692;8.186;2022-07-23T02:25:08;98681.19;;;20.16;74.17
59531;BME280;45349;48.692;8.186;2022-07-23T02:27:37;98682.97;;;20.23;72.85
59531;BME280;45349;48.692;8.186;2022-07-23T02:30:08;98689.22;;;20.35;70.51
59531;BME280;45349;48.692;8.186;2022-07-23T02:32:35;98687.75;;;20.46;68.77
59531;BME280;45349;48.692;8.186;2022-07-23T02:35:21;98685.44;;;20.56;68.03
59531;BME280;45349;48.692;8.186;2022-07-23T02:37:49;98679.91;;;20.58;68.18
59531;BME280;45349;48.692;8.186;2022-07-23T02:40:17;98691.34;;;20.58;68.28
59531;BME280;45349;48.692;8.186;2022-07-23T02:42:44;98685.03;;;20.59;67.67
59531;BME280;45349;48.692;8.186;2022-07-23T02:45:13;98690.16;;;20.54;69.00
59531;BME280;45349;48.692;8.186;2022-07-23T02:47:42;98691.81;;;20.48;70.06
59531;BME280;45349;48.692;8.186;2022-07-23T02:50:09;98690.59;;;20.44;70.00
59531;BME280;45349;48.692;8.186;2022-07-23T02:52:38;98685.47;;;20.49;69.01
59531;BME280;45349;48.692;8.186;2022-07-23T02:55:07;98684.69;;;20.49;68.59
59531;BME280;45349;48.692;8.186;2022-07-23T02:57:34;98688.13;;;20.49;68.58
59531;BME280;45349;48.692;8.186;2022-07-23T03:00:04;98697.88;;;20.56;67.55
59531;BME280;45349;48.692;8.186;2022-07-23T03:02:33;98683.56;;;20.63;66.66
59531;BME280;45349;48.692;8.186;2022-07-23T03:05:00;98692.91;;;20.66;65.71
59531;BME280;45349;48.692;8.186;2022-07-23T03:07:28;98687.19;;;20.69;65.70
59531;BME280;45349;48.692;8.186;2022-07-23T03:09:55;98689.59;;;20.77;66.72
59531;BME280;45349;48.692;8.186;2022-07-23T03:12:22;98706.78;;;20.68;67.26
59531;BME280;45349;48.692;8.186;2022-07-23T03:14:51;98697.25;;;20.60;67.94
59531;BME280;45349;48.692;8.186;2022-07-23T03:17:18;98694.63;;;20.54;68.16
59531;BME280;45349;48.692;8.186;2022-07-23T03:19:47;98698.56;;;20.44;68.10
59531;BME280;45349;48.692;8.186;2022-07-23T03:22:15;98695.75;;;20.39;68.72
59531;BME280;45349;48.692;8.186;2022-07-23T03:24:43;98692.31;;;20.32;68.83
59531;BME280;45349;48.692;8.186;2022-07-23T03:27:27;98696.22;;;20.23;69.40
59531;BME280;45349;48.692;8.186;2022-07-23T03:29:57;98689.97;;;20.17;69.48
59531;BME280;45349;48.692;8.186;2022-07-23T03:32:25;98699.34;;;20.13;69.07
59531;BME280;45349;48.692;8.186;2022-07-23T03:34:54;98704.28;;;20.09;69.55
59531;BME280;45349;48.692;8.186;2022-07-23T03:37:22;98701.03;;;20.07;69.22
59531;BME280;45349;48.692;8.186;2022-07-23T03:39:48;98704.72;;;19.99;70.12
59531;BME280;45349;48.692;8.186;2022-07-23T03:42:16;98705.97;;;19.97;70.37
59531;BME280;45349;48.692;8.186;2022-07-23T03:44:45;98707.19;;;19.94;69.58
59531;BME280;45349;48.692;8.186;2022-07-23T03:47:12;98709.81;;;19.94;68.88
59531;BME280;45349;48.692;8.186;2022-07-23T03:49:40;98708.41;;;19.91;69.11
59531;BME280;45349;48.692;8.186;2022-07-23T03:52:09;98700.66;;;19.90;69.88
59531;BME280;45349;48.692;8.186;2022-07-23T03:54:36;98709.63;;;19.89;69.39
59531;BME280;45349;48.692;8.186;2022-07-23T03:57:03;98707.97;;;19.88;69.75
59531;BME280;45349;48.692;8.186;2022-07-23T03:59:31;98717.78;;;19.87;69.53
59531;BME280;45349;48.692;8.186;2022-07-23T04:01:58;98714.09;;;19.88;69.90
59531;BME280;45349;48.692;8.186;2022-07-23T04:04:25;98716.38;;;19.91;69.37
59531;BME280;45349;48.692;8.186;2022-07-23T04:06:52;98718.19;;;19.98;69.72
59531;BME280;45349;48.692;8.186;2022-07-23T04:09:21;98716.31;;;19.98;69.94
59531;BME280;45349;48.692;8.186;2022-07-23T04:11:48;98714.09;;;20.02;69.68
59531;BME280;45349;48.692;8.186;2022-07-23T04:14:15;98707.16;;;20.01;68.93
59531;BME280;45349;48.692;8.186;2022-07-23T04:17:01;98713.44;;;20.06;69.22
59531;BME280;45349;48.692;8.186;2022-07-23T04:19:29;98712.41;;;20.08;68.85
59531;BME280;45349;48.692;8.186;2022-07-23T04:22:04;98716.09;;;20.13;66.98
59531;BME280;45349;48.692;8.186;2022-07-23T04:24:35;98722.78;;;20.16;66.01
59531;BME280;45349;48.692;8.186;2022-07-23T04:27:03;98720.78;;;20.11;66.75
59531;BME280;45349;48.692;8.186;2022-07-23T04:29:31;98725.84;;;20.13;67.17
59531;BME280;45349;48.692;8.186;2022-07-23T04:31:58;98735.59;;;20.19;66.26
59531;BME280;45349;48.692;8.186;2022-07-23T04:34:26;98735.56;;;20.26;66.80
59531;BME280;45349;48.692;8.186;2022-07-23T04:36:54;98743.09;;;20.29;67.69
59531;BME280;45349;48.692;8.186;2022-07-23T04:39:22;98736.78;;;20.30;67.66
59531;BME280;45349;48.692;8.186;2022-07-23T04:41:51;98737.97;;;20.34;66.62
59531;BME280;45349;48.692;8.186;2022-07-23T04:44:37;98730.81;;;20.41;66.20
59531;BME280;45349;48.692;8.186;2022-07-23T04:47:05;98732.59;;;20.47;66.03
59531;BME280;45349;48.692;8.186;2022-07-23T04:49:33;98726.06;;;20.50;66.89
59531;BME280;45349;48.692;8.186;2022-07-23T04:52:00;98727.69;;;20.51;66.14
59531;BME280;45349;48.692;8.186;2022-07-23T04:54:28;98724.81;;;20.59;65.41
59531;BME280;45349;48.692;8.186;2022-07-23T04:56:57;98731.25;;;20.70;66.61
59531;BME280;45349;48.692;8.186;2022-07-23T04:59:24;98732.41;;;20.81;66.65
59531;BME280;45349;48.692;8.186;2022-07-23T05:01:58;98727.44;;;20.91;65.94
59531;BME280;45349;48.692;8.186;2022-07-23T05:04:25;98733.69;;;21.04;65.54
59531;BME280;45349;48.692;8.186;2022-07-23T05:06:53;98736.41;;;20.97;65.64
59531;BME280;45349;48.692;8.186;2022-07-23T05:09:20;98740.25;;;21.01;65.74
59531;BME280;45349;48.692;8.186;2022-07-23T05:11:47;98752.59;;;21.14;65.98
59531;BME280;45349;48.692;8.186;2022-07-23T05:14:16;98737.66;;;21.38;66.75
59531;BME280;45349;48.692;8.186;2022-07-23T05:16:48;98721.66;;;21.27;65.35
59531;BME280;45349;48.692;8.186;2022-07-23T05:19:21;98714.47;;;21.27;65.97
59531;BME280;45349;48.692;8.186;2022-07-23T05:21:48;98718.47;;;21.36;66.69
59531;BME280;45349;48.692;8.186;2022-07-23T05:24:15;98716.41;;;21.38;66.72
59531;BME280;45349;48.692;8.186;2022-07-23T05:26:43;98715.19;;;21.41;66.01
59531;BME280;45349;48.692;8.186;2022-07-23T05:29:10;98713.19;;;21.55;65.46
59531;BME280;45349;48.692;8.186;2022-07-23T05:31:39;98701.56;;;21.75;66.18
59531;BME280;45349;48.692;8.186;2022-07-23T05:34:06;98704.38;;;21.99;65.07
59531;BME280;45349;48.692;8.186;2022-07-23T05:36:35;98709.81;;;22.04;64.59
59531;BME280;45349;48.692;8.186;2022-07-23T05:39:03;98721.94;;;22.00;64.28
59531;BME280;45349;48.692;8.186;2022-07-23T05:41:33;98733.00;;;21.96;64.73
59531;BME280;45349;48.692;8.186;2022-07-23T05:44:02;98732.28;;;21.89;65.51
59531;BME280;45349;48.692;8.186;2022-07-23T05:46:29;98755.38;;;21.89;65.37
59531;BME280;45349;48.692;8.186;2022-07-23T05:49:04;98783.50;;;21.78;63.09
59531;BME280;45349;48.692;8.186;2022-07-23T05:51:55;98824.31;;;21.58;62.92
59531;BME280;45349;48.692;8.186;2022-07-23T05:54:41;98845.19;;;21.55;63.46
59531;BME280;45349;48.692;8.186;2022-07-23T05:57:09;98837.41;;;21.53;64.98
59531;BME280;45349;48.692;8.186;2022-07-23T05:59:36;98818.66;;;21.48;66.80
59531;BME280;45349;48.692;8.186;2022-07-23T06:02:03;98807.34;;;21.08;78.18
59531;BME280;45349;48.692;8.186;2022-07-23T06:04:32;98812.22;;;20.79;81.93
59531;BME280;45349;48.692;8.186;2022-07-23T06:07:22;98827.63;;;20.57;84.38
59531;BME280;45349;48.692;8.186;2022-07-23T06:09:50;98807.06;;;20.46;87.13
59531;BME280;45349;48.692;8.186;2022-07-23T06:12:18;98797.50;;;20.45;89.11
59531;BME280;45349;48.692;8.186;2022-07-23T06:14:46;98793.81;;;20.39;91.27
59531;BME280;45349;48.692;8.186;2022-07-23T06:17:15;98790.75;;;20.49;89.78
59531;BME280;45349;48.692;8.186;2022-07-23T06:19:44;98795.75;;;20.64;90.42
59531;BME280;45349;48.692;8.186;2022-07-23T06:22:11;98782.44;;;20.77;90.50
59531;BME280;45349;48.692;8.186;2022-07-23T06:24:38;98777.69;;;20.86;89.98
59531;BME280;45349;48.692;8.186;2022-07-23T06:27:06;98783.34;;;20.97;87.95
59531;BME280;45349;48.692;8.186;2022-07-23T06:29:34;98786.03;;;20.90;89.73
59531;BME280;45349;48.692;8.186;2022-07-23T06:32:01;98794.63;;;20.85;90.74
59531;BME280;45349;48.692;8.186;2022-07-23T06:34:29;98800.72;;;20.92;91.61
59531;BME280;45349;48.692;8.186;2022-07-23T06:37:16;98810.97;;;20.82;91.22
59531;BME280;45349;48.692;8.186;2022-07-23T06:39:45;98808.81;;;20.65;91.09
59531;BME280;45349;48.692;8.186;2022-07-23T06:42:12;98807.63;;;20.55;91.60
59531;BME280;45349;48.692;8.186;2022-07-23T06:44:44;98807.34;;;20.70;91.43
59531;BME280;45349;48.692;8.186;2022-07-23T06:47:15;98797.50;;;20.77;92.29
59531;BME280;45349;48.692;8.186;2022-07-23T06:49:42;98794.34;;;21.00;86.97
59531;BME280;45349;48.692;8.186;2022-07-23T06:52:09;98789.69;;;21.21;88.72
59531;BME280;45349;48.692;8.186;2022-07-23T06:54:38;98789.63;;;21.53;87.75
59531;BME280;45349;48.692;8.186;2022-07-23T06:57:05;98793.59;;;21.69;87.95
59531;BME280;45349;48.692;8.186;2022-07-23T06:59:33;98801.50;;;21.76;87.46
59531;BME280;45349;48.692;8.186;2022-07-23T07:02:02;98804.44;;;21.67;80.37
59531;BME280;45349;48.692;8.186;2022-07-23T07:04:29;98812.09;;;21.25;87.34
59531;BME280;45349;48.692;8.186;2022-07-23T07:06:58;98817.53;;;21.12;89.04
59531;BME280;45349;48.692;8.186;2022-07-23T07:09:25;98845.75;;;21.06;89.65
59531;BME280;45349;48.692;8.186;2022-07-23T07:11:57;98841.34;;;20.86;90.64
59531;BME280;45349;48.692;8.186;2022-07-23T07:14:24;98828.09;;;20.86;93.25
59531;BME280;45349;48.692;8.186;2022-07-23T07:16:51;98824.22;;;20.89;93.82
59531;BME280;45349;48.692;8.186;2022-07-23T07:19:18;98819.69;;;20.89;92.92
59531;BME280;45349;48.692;8.186;2022-07-23T07:21:45;98810.81;;;21.09;92.63
59531;BME280;45349;48.692;8.186;2022-07-23T07:24:12;98819.63;;;21.28;90.01
59531;BME280;45349;48.692;8.186;2022-07-23T07:26:40;98829.47;;;21.53;89.57
59531;BME280;45349;48.692;8.186;2022-07-23T07:29:08;98831.69;;;21.56;84.23
59531;BME280;45349;48.692;8.186;2022-07-23T07:31:36;98830.28;;;21.79;84.04
59531;BME280;45349;48.692;8.186;2022-07-23T07:34:03;98839.75;;;21.93;86.82
59531;BME280;45349;48.692;8.186;2022-07-23T07:36:30;98840.25;;;22.02;88.04
59531;BME280;45349;48.692;8.186;2022-07-23T07:38:58;98836.66;;;22.15;87.68
59531;BME280;45349;48.692;8.186;2022-07-23T07:41:25;98838.00;;;22.24;87.58
59531;BME280;45349;48.692;8.186;2022-07-23T07:43:52;98846.94;;;22.49;85.78
59531;BME280;45349;48.692;8.186;2022-07-23T07:46:21;98854.31;;;22.65;84.41
59531;BME280;45349;48.692;8.186;2022-07-23T07:48:49;98854.25;;;22.84;83.81
59531;BME280;45349;48.692;8.186;2022-07-23T07:51:16;98859.72;;;22.89;81.55
59531;BME280;45349;48.692;8.186;2022-07-23T07:53:44;98860.25;;;23.10;76.99
59531;BME280;45349;48.692;8.186;2022-07-23T07:56:11;98858.25;;;23.24;76.24
59531;BME280;45349;48.692;8.186;2022-07-23T07:58:38;98859.09;;;23.48;80.94
59531;BME280;45349;48.692;8.186;2022-07-23T08:01:06;98859.78;;;23.67;79.97
59531;BME280;45349;48.692;8.186;2022-07-23T08:03:35;98860.72;;;23.61;75.51
59531;BME280;45349;48.692;8.186;2022-07-23T08:06:02;98857.25;;;23.61;75.74
59531;BME280;45349;48.692;8.186;2022-07-23T08:08:28;98859.88;;;23.49;77.07
59531;BME280;45349;48.692;8.186;2022-07-23T08:10:56;98867.78;;;23.55;77.58
59531;BME280;45349;48.692;8.186;2022-07-23T08:13:23;98863.22;;;23.32;78.00
59531;BME280;45349;48.692;8.186;2022-07-23T08:15:51;98867.63;;;23.38;80.22
59531;BME280;45349;48.692;8.186;2022-07-23T08:18:20;98867.41;;;23.52;77.52
59531;BME280;45349;48.692;8.186;2022-07-23T08:20:51;98866.69;;;23.33;77.31
59531;BME280;45349;48.692;8.186;2022-07-23T08:23:19;98870.06;;;23.40;75.10
59531;BME280;45349;48.692;8.186;2022-07-23T08:25:46;98869.03;;;23.29;73.05
59531;BME280;45349;48.692;8.186;2022-07-23T08:28:15;98864.97;;;23.38;76.24
59531;BME280;45349;48.692;8.186;2022-07-23T08:30:46;98869.75;;;23.48;80.87
59531;BME280;45349;48.692;8.186;2022-07-23T08:33:15;98876.59;;;23.68;79.07
59531;BME280;45349;48.692;8.186;2022-07-23T08:35:44;98875.69;;;23.86;74.56
59531;BME280;45349;48.692;8.186;2022-07-23T08:38:15;98889.00;;;23.74;70.19
59531;BME280;45349;48.692;8.186;2022-07-23T08:40:44;98888.28;;;23.55;72.11
59531;BME280;45349;48.692;8.186;2022-07-23T08:43:13;98888.84;;;23.57;70.92
59531;BME280;45349;48.692;8.186;2022-07-23T08:45:43;98902.44;;;23.55;69.31
59531;BME280;45349;48.692;8.186;2022-07-23T08:48:12;98893.03;;;23.53;72.20
59531;BME280;45349;48.692;8.186;2022-07-23T08:50:43;98897.69;;;23.69;71.31
59531;BME280;45349;48.692;8.186;2022-07-23T08:53:11;98894.81;;;23.71;66.51
59531;BME280;45349;48.692;8.186;2022-07-23T08:55:43;98904.66;;;23.82;66.07
59531;BME280;45349;48.692;8.186;2022-07-23T08:58:11;98895.13;;;23.74;64.35
59531;BME280;45349;48.692;8.186;2022-07-23T09:00:39;98889.47;;;23.71;63.50
59531;BME280;45349;48.692;8.186;2022-07-23T09:03:06;98889.56;;;23.64;63.04
59531;BME280;45349;48.692;8.186;2022-07-23T09:05:34;98886.19;;;23.45;61.26
59531;BME280;45349;48.692;8.186;2022-07-23T09:08:14;98871.94;;;23.63;59.83
59531;BME280;45349;48.692;8.186;2022-07-23T09:10:49;98883.31;;;23.58;61.16
59531;BME280;45349;48.692;8.186;2022-07-23T09:13:38;98890.97;;;23.79;62.90
59531;BME280;45349;48.692;8.186;2022-07-23T09:16:10;98881.50;;;24.07;62.28
59531;BME280;45349;48.692;8.186;2022-07-23T09:18:41;98881.38;;;24.13;62.03
59531;BME280;45349;48.692;8.186;2022-07-23T09:21:15;98888.44;;;24.31;61.13
59531;BME280;45349;48.692;8.186;2022-07-23T09:23:43;98887.28;;;24.15;61.82
59531;BME280;45349;48.692;8.186;2022-07-23T09:26:28;98889.72;;;24.17;63.14
59531;BME280;45349;48.692;8.186;2022-07-23T09:29:04;98883.78;;;24.27;65.57
59531;BME280;45349;48.692;8.186;2022-07-23T09:31:34;98890.31;;;24.19;64.36
59531;BME280;45349;48.692;8.186;2022-07-23T09:34:13;98892.91;;;24.43;64.05
59531;BME280;45349;48.692;8.186;2022-07-23T09:36:41;98897.50;;;24.71;61.39
59531;BME280;45349;48.692;8.186;2022-07-23T09:39:08;98899.47;;;24.76;63.15
59531;BME280;45349;48.692;8.186;2022-07-23T09:41:39;98896.16;;;24.98;61.25
59531;BME280;45349;48.692;8.186;2022-07-23T09:44:15;98901.09;;;25.52;60.13
59531;BME280;45349;48.692;8.186;2022-07-23T09:46:43;98902.31;;;25.96;59.17
59531;BME280;45349;48.692;8.186;2022-07-23T09:49:18;98906.03;;;26.34;58.35
59531;BME280;45349;48.692;8.186;2022-07-23T09:51:47;98902.25;;;26.52;55.61
59531;BME280;45349;48.692;8.186;2022-07-23T09:54:32;98904.44;;;26.33;57.04
59531;BME280;45349;48.692;8.186;2022-07-23T09:57:04;98898.31;;;26.15;55.82
59531;BME280;45349;48.692;8.186;2022-07-23T09:59:35;98903.22;;;26.23;56.64
59531;BME280;45349;48.692;8.186;2022-07-23T10:02:02;98895.09;;;26.35;53.68
59531;BME280;45349;48.692;8.186;2022-07-23T10:04:38;98896.16;;;26.34;57.31
59531;BME280;45349;48.692;8.186;2022-07-23T10:07:22;98888.50;;;26.43;54.64
59531;BME280;45349;48.692;8.186;2022-07-23T10:11:00;98891.09;;;26.60;56.03
59531;BME280;45349;48.692;8.186;2022-07-23T10:13:31;98894.59;;;26.83;53.60
59531;BME280;45349;48.692;8.186;2022-07-23T10:16:30;98893.03;;;26.87;51.94
59531;BME280;45349;48.692;8.186;2022-07-23T10:18:56;98894.16;;;27.19;50.47
59531;BME280;45349;48.692;8.186;2022-07-23T10:21:26;98894.19;;;27.24;51.34
59531;BME280;45349;48.692;8.186;2022-07-23T10:24:12;98897.84;;;27.13;51.54
59531;BME280;45349;48.692;8.186;2022-07-23T10:26:50;98900.16;;;27.64;47.94
59531;BME280;45349;48.692;8.186;2022-07-23T10:29:31;98897.94;;;27.23;47.04
59531;BME280;45349;48.692;8.186;2022-07-23T10:32:08;98886.88;;;27.47;43.88
59531;BME280;45349;48.692;8.186;2022-07-23T10:34:47;98895.56;;;27.26;42.76
59531;BME280;45349;48.692;8.186;2022-07-23T10:37:39;98896.38;;;27.60;43.26
59531;BME280;45349;48.692;8.186;2022-07-23T10:40:12;98896.31;;;27.87;44.82
59531;BME280;45349;48.692;8.186;2022-07-23T10:42:41;98899.53;;;27.84;42.73
59531;BME280;45349;48.692;8.186;2022-07-23T10:45:25;98894.63;;;27.76;42.41
59531;BME280;45349;48.692;8.186;2022-07-23T10:47:53;98897.66;;;27.90;41.58
59531;BME280;45349;48.692;8.186;2022-07-23T10:50:21;98898.91;;;28.14;40.69
59531;BME280;45349;48.692;8.186;2022-07-23T10:53:11;98899.59;;;27.94;42.92
59531;BME280;45349;48.692;8.186;2022-07-23T10:55:45;98898.38;;;28.12;41.95
59531;BME280;45349;48.692;8.186;2022-07-23T10:58:19;98903.31;;;28.31;41.30
59531;BME280;45349;48.692;8.186;2022-07-23T11:00:47;98896.16;;;28.04;42.67
59531;BME280;45349;48.692;8.186;2022-07-23T11:03:31;98896.19;;;28.09;42.86
59531;BME280;45349;48.692;8.186;2022-07-23T11:06:02;98900.63;;;27.50;43.54
59531;BME280;45349;48.692;8.186;2022-07-23T11:08:28;98899.81;;;27.88;41.23
59531;BME280;45349;48.692;8.186;2022-07-23T11:11:08;98899.19;;;27.75;41.48
59531;BME280;45349;48.692;8.186;2022-07-23T11:13:42;98900.38;;;27.95;43.55
59531;BME280;45349;48.692;8.186;2022-07-23T11:16:14;98901.50;;;28.04;40.35
59531;BME280;45349;48.692;8.186;2022-07-23T11:19:04;98903.00;;;27.84;42.37
59531;BME280;45349;48.692;8.186;2022-07-23T11:21:58;98899.16;;;28.13;42.91
59531;BME280;45349;48.692;8.186;2022-07-23T11:24:26;98897.13;;;27.88;43.28
59531;BME280;45349;48.692;8.186;2022-07-23T11:27:01;98889.72;;;28.05;44.81
59531;BME280;45349;48.692;8.186;2022-07-23T11:29:40;98897.78;;;28.10;46.04
59531;BME280;45349;48.692;8.186;2022-07-23T11:35:01;98892.94;;;28.07;44.70
59531;BME280;45349;48.692;8.186;2022-07-23T11:37:36;98896.00;;;28.21;44.93
59531;BME280;45349;48.692;8.186;2022-07-23T11:40:08;98895.31;;;28.47;43.75
59531;BME280;45349;48.692;8.186;2022-07-23T11:42:37;98900.66;;;28.41;42.89
59531;BME280;45349;48.692;8.186;2022-07-23T11:45:08;98891.69;;;27.77;41.47
59531;BME280;45349;48.692;8.186;2022-07-23T11:47:35;98891.03;;;27.97;39.66
59531;BME280;45349;48.692;8.186;2022-07-23T11:50:04;98890.53;;;28.06;40.56
59531;BME280;45349;48.692;8.186;2022-07-23T11:52:32;98893.72;;;27.97;41.74
59531;BME280;45349;48.692;8.186;2022-07-23T11:55:01;98891.28;;;27.96;41.44
59531;BME280;45349;48.692;8.186;2022-07-23T11:57:29;98888.41;;;28.08;38.69
59531;BME280;45349;48.692;8.186;2022-07-23T12:00:04;98891.88;;;28.08;41.76
59531;BME280;45349;48.692;8.186;2022-07-23T12:02:39;98889.75;;;28.10;40.45
59531;BME280;45349;48.692;8.186;2022-07-23T12:05:07;98899.75;;;28.20;39.21
59531;BME280;45349;48.692;8.186;2022-07-23T12:07:37;98892.94;;;28.07;39.33
59531;BME280;45349;48.692;8.186;2022-07-23T12:10:10;98890.53;;;28.11;42.01
59531;BME280;45349;48.692;8.186;2022-07-23T12:12:38;98889.56;;;28.22;42.03
59531;BME280;45349;48.692;8.186;2022-07-23T12:15:07;98891.94;;;28.13;43.82
59531;BME280;45349;48.692;8.186;2022-07-23T12:17:36;98886.94;;;28.38;41.11
59531;BME280;45349;48.692;8.186;2022-07-23T12:20:07;98881.38;;;28.55;40.37
59531;BME280;45349;48.692;8.186;2022-07-23T12:22:36;98882.38;;;28.33;42.50
59531;BME280;45349;48.692;8.186;2022-07-23T12:25:06;98886.66;;;28.34;40.91
59531;BME280;45349;48.692;8.186;2022-07-23T12:27:34;98883.22;;;28.49;41.48
59531;BME280;45349;48.692;8.186;2022-07-23T12:30:21;98889.56;;;28.91;40.82
59531;BME280;45349;48.692;8.186;2022-07-23T12:32:51;98883.91;;;28.82;39.05
59531;BME280;45349;48.692;8.186;2022-07-23T12:35:20;98884.59;;;28.52;40.57
59531;BME280;45349;48.692;8.186;2022-07-23T12:37:49;98883.78;;;28.56;40.87
59531;BME280;45349;48.692;8.186;2022-07-23T12:40:23;98879.25;;;28.67;41.63
59531;BME280;45349;48.692;8.186;2022-07-23T12:42:53;98883.63;;;28.84;42.19
59531;BME280;45349;48.692;8.186;2022-07-23T12:45:20;98874.16;;;28.61;40.97
59531;BME280;45349;48.692;8.186;2022-07-23T12:48:00;98871.44;;;28.55;39.95
59531;BME280;45349;48.692;8.186;2022-07-23T12:50:39;98883.69;;;28.31;41.14
59531;BME280;45349;48.692;8.186;2022-07-23T12:53:08;98877.34;;;28.52;41.12
59531;BME280;45349;48.692;8.186;2022-07-23T12:55:36;98869.59;;;28.71;41.60
59531;BME280;45349;48.692;8.186;2022-07-23T12:58:09;98876.03;;;28.70;41.74
59531;BME280;45349;48.692;8.186;2022-07-23T13:03:32;98875.25;;;28.75;41.85
59531;BME280;45349;48.692;8.186;2022-07-23T13:06:01;98878.28;;;28.94;38.74
59531;BME280;45349;48.692;8.186;2022-07-23T13:08:30;98868.03;;;28.86;40.46
59531;BME280;45349;48.692;8.186;2022-07-23T13:10:58;98879.91;;;29.16;40.89
59531;BME280;45349;48.692;8.186;2022-07-23T13:13:27;98879.13;;;29.05;40.29
59531;BME280;45349;48.692;8.186;2022-07-23T13:15:56;98875.13;;;29.49;39.29
59531;BME280;45349;48.692;8.186;2022-07-23T13:18:25;98878.31;;;29.30;38.00
59531;BME280;45349;48.692;8.186;2022-07-23T13:20:52;98874.03;;;29.60;38.11
59531;BME280;45349;48.692;8.186;2022-07-23T13:23:21;98881.53;;;29.74;37.03